sensor_id;sensor_type;location;lat;lon;timestamp;P1;durP1;ratioP1;P2;durP2;ratioP2
10339;SDS011;5215;48.676;9.022;2022-07-29T00:01:14;4.63;;;4.07;;
10339;SDS011;5215;48.676;9.022;2022-07-29T00:03:42;4.30;;;3.90;;
10339;SDS011;5215;48.676;9.022;2022-07-29T00:06:09;4.60;;;4.20;;
10339;SDS011;5215;48.676;9.022;2022-07-29T00:08:35;4.53;;;4.13;;
10339;SDS011;5215;48.676;9.022;2022-07-29T00:11:02;4.50;;;3.90;;
10339;SDS011;5215;48.676;9.022;2022-07-29T00:13:29;4.22;;;3.90;;
10339;SDS011;5215;48.676;9.022;2022-07-29T00:15:56;5.00;;;4.43;;
10339;SDS011;5215;48.676;9.022;2022-07-29T00:18:22;4.93;;;4.38;;
10339;SDS011;5215;48.676;9.022;2022-07-29T00:20:50;4.40;;;4.00;;
10339;SDS011;5215;48.676;9.022;2022-07-29T00:23:17;4.93;;;4.43;;
10339;SDS011;5215;48.676;9.022;2022-07-29T00:25:44;5.03;;;4.53;;
10339;SDS011;5215;48.676;9.022;2022-07-29T00:28:10;3.75;;;3.42;;
10339;SDS011;5215;48.676;9.022;2022-07-29T00:30:37;4.82;;;4.18;;
10339;SDS011;5215;48.676;9.022;2022-07-29T00:33:03;4.63;;;4.20;;
10339;SDS011;5215;48.676;9.022;2022-07-29T00:35:30;4.47;;;3.33;;
10339;SDS011;5215;48.676;9.022;2022-07-29T00:38:13;5.30;;;3.92;;
10339;SDS011;5215;48.676;9.022;2022-07-29T00:40:41;3.70;;;3.40;;
10339;SDS011;5215;48.676;9.022;2022-07-29T00:43:08;4.97;;;3.47;;
10339;SDS011;5215;48.676;9.022;2022-07-29T00:45:36;3.53;;;3.22;;
10339;SDS011;5215;48.676;9.022;2022-07-29T00:48:03;3.63;;;3.33;;
10339;SDS011;5215;48.676;9.022;2022-07-29T00:50:30;3.78;;;3.38;;
10339;SDS011;5215;48.676;9.022;2022-07-29T00:52:58;4.00;;;3.20;;
10339;SDS011;5215;48.676;9.022;2022-07-29T00:55:27;3.50;;;2.97;;
10339;SDS011;5215;48.676;9.022;2022-07-29T00:57:55;7.15;;;3.28;;
10339;SDS011;5215;48.676;9.022;2022-07-29T01:00:23;5.68;;;3.28;;
10339;SDS011;5215;48.676;9.022;2022-07-29T01:02:51;3.75;;;3.40;;
10339;SDS011;5215;48.676;9.022;2022-07-29T01:05:19;3.58;;;3.17;;
10339;SDS011;5215;48.676;9.022;2022-07-29T01:07:48;3.50;;;2.90;;
10339;SDS011;5215;48.676;9.022;2022-07-29T01:10:17;3.80;;;3.50;;
10339;SDS011;5215;48.676;9.022;2022-07-29T01:12:48;3.88;;;3.50;;
10339;SDS011;5215;48.676;9.022;2022-07-29T01:15:17;3.83;;;3.22;;
10339;SDS011;5215;48.676;9.022;2022-07-29T01:17:44;4.32;;;3.42;;
10339;SDS011;5215;48.676;9.022;2022-07-29T01:20:18;3.60;;;3.30;;
10339;SDS011;5215;48.676;9.022;2022-07-29T01:26:12;3.72;;;2.97;;
10339;SDS011;5215;48.676;9.022;2022-07-29T01:29:04;3.40;;;3.10;;
10339;SDS011;5215;48.676;9.022;2022-07-29T01:31:38;3.83;;;3.28;;
10339;SDS011;5215;48.676;9.022;2022-07-29T01:34:10;3.55;;;3.25;;
10339;SDS011;5215;48.676;9.022;2022-07-29T01:36:43;4.50;;;3.17;;
10339;SDS011;5215;48.676;9.022;2022-07-29T01:39:14;5.65;;;3.67;;
10339;SDS011;5215;48.676;9.022;2022-07-29T01:41:47;3.72;;;3.42;;
10339;SDS011;5215;48.676;9.022;2022-07-29T01:44:27;4.55;;;3.72;;
10339;SDS011;5215;48.676;9.022;2022-07-29T01:46:58;3.55;;;3.25;;
10339;SDS011;5215;48.676;9.022;2022-07-29T01:49:31;4.53;;;3.90;;
10339;SDS011;5215;48.676;9.022;2022-07-29T01:52:03;4.28;;;3.83;;
10339;SDS011;5215;48.676;9.022;2022-07-29T01:54:35;4.03;;;3.60;;
10339;SDS011;5215;48.676;9.022;2022-07-29T01:57:08;4.13;;;3.72;;
10339;SDS011;5215;48.676;9.022;2022-07-29T01:59:39;5.05;;;3.85;;
10339;SDS011;5215;48.676;9.022;2022-07-29T02:02:08;3.53;;;3.22;;
10339;SDS011;5215;48.676;9.022;2022-07-29T02:04:37;3.75;;;3.45;;
10339;SDS011;5215;48.676;9.022;2022-07-29T02:07:07;5.68;;;3.60;;
10339;SDS011;5215;48.676;9.022;2022-07-29T02:09:36;3.40;;;3.10;;
10339;SDS011;5215;48.676;9.022;2022-07-29T02:12:05;5.75;;;3.65;;
10339;SDS011;5215;48.676;9.022;2022-07-29T02:14:36;3.40;;;3.10;;
10339;SDS011;5215;48.676;9.022;2022-07-29T02:17:05;3.00;;;2.80;;
10339;SDS011;5215;48.676;9.022;2022-07-29T02:19:33;3.45;;;3.15;;
10339;SDS011;5215;48.676;9.022;2022-07-29T02:22:03;4.38;;;3.47;;
10339;SDS011;5215;48.676;9.022;2022-07-29T02:24:31;4.47;;;3.30;;
10339;SDS011;5215;48.676;9.022;2022-07-29T02:27:01;3.55;;;3.25;;
10339;SDS011;5215;48.676;9.022;2022-07-29T02:29:30;3.53;;;3.28;;
10339;SDS011;5215;48.676;9.022;2022-07-29T02:31:58;4.00;;;3.60;;
10339;SDS011;5215;48.676;9.022;2022-07-29T02:34:28;3.30;;;3.00;;
10339;SDS011;5215;48.676;9.022;2022-07-29T02:36:55;3.33;;;3.03;;
10339;SDS011;5215;48.676;9.022;2022-07-29T02:39:22;4.10;;;3.30;;
10339;SDS011;5215;48.676;9.022;2022-07-29T02:41:52;3.42;;;3.13;;
10339;SDS011;5215;48.676;9.022;2022-07-29T02:44:23;4.28;;;3.08;;
10339;SDS011;5215;48.676;9.022;2022-07-29T02:46:52;3.45;;;3.17;;
10339;SDS011;5215;48.676;9.022;2022-07-29T02:49:25;3.45;;;3.15;;
10339;SDS011;5215;48.676;9.022;2022-07-29T02:52:00;3.47;;;3.17;;
10339;SDS011;5215;48.676;9.022;2022-07-29T02:54:31;3.80;;;3.30;;
10339;SDS011;5215;48.676;9.022;2022-07-29T02:57:03;4.10;;;3.13;;
10339;SDS011;5215;48.676;9.022;2022-07-29T02:59:37;3.22;;;2.85;;
10339;SDS011;5215;48.676;9.022;2022-07-29T03:02:08;3.65;;;3.33;;
10339;SDS011;5215;48.676;9.022;2022-07-29T03:04:37;4.25;;;3.20;;
10339;SDS011;5215;48.676;9.022;2022-07-29T03:07:05;5.18;;;3.40;;
10339;SDS011;5215;48.676;9.022;2022-07-29T03:09:33;4.07;;;3.63;;
10339;SDS011;5215;48.676;9.022;2022-07-29T03:12:00;3.85;;;3.40;;
10339;SDS011;5215;48.676;9.022;2022-07-29T03:14:28;5.55;;;3.80;;
10339;SDS011;5215;48.676;9.022;2022-07-29T03:16:55;3.55;;;3.25;;
10339;SDS011;5215;48.676;9.022;2022-07-29T03:19:22;4.40;;;3.95;;
10339;SDS011;5215;48.676;9.022;2022-07-29T03:21:50;3.95;;;3.60;;
10339;SDS011;5215;48.676;9.022;2022-07-29T03:24:24;3.40;;;3.20;;
10339;SDS011;5215;48.676;9.022;2022-07-29T03:26:55;4.03;;;3.60;;
10339;SDS011;5215;48.676;9.022;2022-07-29T03:29:22;3.42;;;3.13;;
10339;SDS011;5215;48.676;9.022;2022-07-29T03:31:48;3.67;;;3.33;;
10339;SDS011;5215;48.676;9.022;2022-07-29T03:34:15;4.95;;;3.50;;
10339;SDS011;5215;48.676;9.022;2022-07-29T03:36:42;3.60;;;3.30;;
10339;SDS011;5215;48.676;9.022;2022-07-29T03:39:10;4.00;;;3.60;;
10339;SDS011;5215;48.676;9.022;2022-07-29T03:41:39;3.70;;;3.40;;
10339;SDS011;5215;48.676;9.022;2022-07-29T03:44:07;5.72;;;4.00;;
10339;SDS011;5215;48.676;9.022;2022-07-29T03:46:35;6.70;;;4.22;;
10339;SDS011;5215;48.676;9.022;2022-07-29T03:49:05;4.57;;;3.63;;
10339;SDS011;5215;48.676;9.022;2022-07-29T03:51:33;4.30;;;3.33;;
10339;SDS011;5215;48.676;9.022;2022-07-29T03:54:01;3.40;;;3.10;;
10339;SDS011;5215;48.676;9.022;2022-07-29T03:56:29;3.33;;;3.03;;
10339;SDS011;5215;48.676;9.022;2022-07-29T03:58:58;5.13;;;2.88;;
10339;SDS011;5215;48.676;9.022;2022-07-29T04:01:25;2.92;;;2.58;;
10339;SDS011;5215;48.676;9.022;2022-07-29T04:03:53;4.35;;;2.85;;
10339;SDS011;5215;48.676;9.022;2022-07-29T04:06:19;3.17;;;2.88;;
10339;SDS011;5215;48.676;9.022;2022-07-29T04:08:46;3.85;;;2.72;;
10339;SDS011;5215;48.676;9.022;2022-07-29T04:11:13;4.97;;;2.70;;
10339;SDS011;5215;48.676;9.022;2022-07-29T04:13:41;2.83;;;2.60;;
10339;SDS011;5215;48.676;9.022;2022-07-29T04:16:07;4.18;;;2.70;;
10339;SDS011;5215;48.676;9.022;2022-07-29T04:18:34;4.22;;;2.58;;
10339;SDS011;5215;48.676;9.022;2022-07-29T04:21:00;3.38;;;3.00;;
10339;SDS011;5215;48.676;9.022;2022-07-29T04:23:29;2.83;;;2.63;;
10339;SDS011;5215;48.676;9.022;2022-07-29T04:25:57;7.53;;;2.97;;
10339;SDS011;5215;48.676;9.022;2022-07-29T04:28:25;3.78;;;3.22;;
10339;SDS011;5215;48.676;9.022;2022-07-29T04:30:53;3.15;;;2.70;;
10339;SDS011;5215;48.676;9.022;2022-07-29T04:33:19;2.60;;;2.40;;
10339;SDS011;5215;48.676;9.022;2022-07-29T04:35:46;3.47;;;2.40;;
10339;SDS011;5215;48.676;9.022;2022-07-29T04:38:12;3.63;;;2.65;;
10339;SDS011;5215;48.676;9.022;2022-07-29T04:40:39;2.63;;;2.42;;
10339;SDS011;5215;48.676;9.022;2022-07-29T04:43:06;2.72;;;2.15;;
10339;SDS011;5215;48.676;9.022;2022-07-29T04:45:32;2.50;;;2.30;;
10339;SDS011;5215;48.676;9.022;2022-07-29T04:48:00;2.60;;;2.40;;
10339;SDS011;5215;48.676;9.022;2022-07-29T04:50:27;3.30;;;2.47;;
10339;SDS011;5215;48.676;9.022;2022-07-29T04:52:53;3.10;;;2.90;;
10339;SDS011;5215;48.676;9.022;2022-07-29T04:55:20;2.63;;;2.42;;
10339;SDS011;5215;48.676;9.022;2022-07-29T04:57:47;3.15;;;2.95;;
10339;SDS011;5215;48.676;9.022;2022-07-29T05:00:14;4.43;;;2.47;;
10339;SDS011;5215;48.676;9.022;2022-07-29T05:02:40;2.42;;;2.22;;
10339;SDS011;5215;48.676;9.022;2022-07-29T05:05:08;2.92;;;2.65;;
10339;SDS011;5215;48.676;9.022;2022-07-29T05:07:35;2.65;;;2.47;;
10339;SDS011;5215;48.676;9.022;2022-07-29T05:10:02;5.28;;;2.70;;
10339;SDS011;5215;48.676;9.022;2022-07-29T05:12:29;3.28;;;2.30;;
10339;SDS011;5215;48.676;9.022;2022-07-29T05:14:56;2.95;;;2.65;;
10339;SDS011;5215;48.676;9.022;2022-07-29T05:17:22;2.30;;;2.10;;
10339;SDS011;5215;48.676;9.022;2022-07-29T05:19:49;3.10;;;2.45;;
10339;SDS011;5215;48.676;9.022;2022-07-29T05:22:18;2.40;;;2.30;;
10339;SDS011;5215;48.676;9.022;2022-07-29T05:24:45;2.95;;;2.75;;
10339;SDS011;5215;48.676;9.022;2022-07-29T05:27:11;4.47;;;2.75;;
10339;SDS011;5215;48.676;9.022;2022-07-29T05:29:39;3.95;;;2.70;;
10339;SDS011;5215;48.676;9.022;2022-07-29T05:32:05;2.95;;;2.70;;
10339;SDS011;5215;48.676;9.022;2022-07-29T05:34:32;2.65;;;2.45;;
10339;SDS011;5215;48.676;9.022;2022-07-29T05:36:59;3.00;;;2.80;;
10339;SDS011;5215;48.676;9.022;2022-07-29T05:39:28;3.45;;;2.90;;
10339;SDS011;5215;48.676;9.022;2022-07-29T05:41:54;3.42;;;3.17;;
10339;SDS011;5215;48.676;9.022;2022-07-29T05:44:21;2.97;;;2.67;;
10339;SDS011;5215;48.676;9.022;2022-07-29T05:46:47;3.88;;;3.05;;
10339;SDS011;5215;48.676;9.022;2022-07-29T05:49:14;2.88;;;2.63;;
10339;SDS011;5215;48.676;9.022;2022-07-29T05:51:41;3.40;;;3.10;;
10339;SDS011;5215;48.676;9.022;2022-07-29T05:54:07;4.15;;;3.72;;
10339;SDS011;5215;48.676;9.022;2022-07-29T05:56:36;5.00;;;3.33;;
10339;SDS011;5215;48.676;9.022;2022-07-29T05:59:03;5.40;;;3.25;;
10339;SDS011;5215;48.676;9.022;2022-07-29T06:01:30;4.00;;;3.60;;
10339;SDS011;5215;48.676;9.022;2022-07-29T06:03:56;3.92;;;3.10;;
10339;SDS011;5215;48.676;9.022;2022-07-29T06:06:23;3.17;;;2.88;;
10339;SDS011;5215;48.676;9.022;2022-07-29T06:08:50;3.90;;;2.95;;
10339;SDS011;5215;48.676;9.022;2022-07-29T06:11:17;3.17;;;2.85;;
10339;SDS011;5215;48.676;9.022;2022-07-29T06:13:45;3.13;;;2.83;;
10339;SDS011;5215;48.676;9.022;2022-07-29T06:16:11;4.63;;;3.15;;
10339;SDS011;5215;48.676;9.022;2022-07-29T06:18:38;3.38;;;3.08;;
10339;SDS011;5215;48.676;9.022;2022-07-29T06:21:06;3.25;;;2.95;;
10339;SDS011;5215;48.676;9.022;2022-07-29T06:23:34;5.57;;;3.22;;
10339;SDS011;5215;48.676;9.022;2022-07-29T06:26:01;3.47;;;3.17;;
10339;SDS011;5215;48.676;9.022;2022-07-29T06:28:28;3.42;;;3.13;;
10339;SDS011;5215;48.676;9.022;2022-07-29T06:30:56;4.10;;;3.63;;
10339;SDS011;5215;48.676;9.022;2022-07-29T06:33:23;4.65;;;3.33;;
10339;SDS011;5215;48.676;9.022;2022-07-29T06:35:49;4.15;;;3.28;;
10339;SDS011;5215;48.676;9.022;2022-07-29T06:38:16;5.45;;;2.60;;
10339;SDS011;5215;48.676;9.022;2022-07-29T06:40:43;2.92;;;2.65;;
10339;SDS011;5215;48.676;9.022;2022-07-29T06:43:32;4.38;;;3.85;;
10339;SDS011;5215;48.676;9.022;2022-07-29T06:46:02;4.03;;;3.40;;
10339;SDS011;5215;48.676;9.022;2022-07-29T06:48:31;8.90;;;4.18;;
10339;SDS011;5215;48.676;9.022;2022-07-29T06:50:58;4.07;;;3.22;;
10339;SDS011;5215;48.676;9.022;2022-07-29T06:53:25;4.45;;;4.05;;
10339;SDS011;5215;48.676;9.022;2022-07-29T06:55:52;4.47;;;3.22;;
10339;SDS011;5215;48.676;9.022;2022-07-29T06:58:18;3.28;;;2.97;;
10339;SDS011;5215;48.676;9.022;2022-07-29T07:00:45;3.42;;;3.13;;
10339;SDS011;5215;48.676;9.022;2022-07-29T07:03:14;4.18;;;3.78;;
10339;SDS011;5215;48.676;9.022;2022-07-29T07:05:40;3.97;;;3.63;;
10339;SDS011;5215;48.676;9.022;2022-07-29T07:08:07;3.70;;;3.38;;
10339;SDS011;5215;48.676;9.022;2022-07-29T07:10:34;4.97;;;3.30;;
10339;SDS011;5215;48.676;9.022;2022-07-29T07:13:00;4.88;;;3.63;;
10339;SDS011;5215;48.676;9.022;2022-07-29T07:15:28;6.88;;;3.63;;
10339;SDS011;5215;48.676;9.022;2022-07-29T07:17:54;3.70;;;3.40;;
10339;SDS011;5215;48.676;9.022;2022-07-29T07:20:23;4.68;;;3.70;;
10339;SDS011;5215;48.676;9.022;2022-07-29T07:22:50;3.92;;;3.50;;
10339;SDS011;5215;48.676;9.022;2022-07-29T07:25:17;4.95;;;3.78;;
10339;SDS011;5215;48.676;9.022;2022-07-29T07:27:44;4.03;;;3.55;;
10339;SDS011;5215;48.676;9.022;2022-07-29T07:30:11;3.78;;;3.47;;
10339;SDS011;5215;48.676;9.022;2022-07-29T07:32:38;4.30;;;3.90;;
10339;SDS011;5215;48.676;9.022;2022-07-29T07:35:05;3.80;;;3.47;;
10339;SDS011;5215;48.676;9.022;2022-07-29T07:37:35;4.47;;;3.88;;
10339;SDS011;5215;48.676;9.022;2022-07-29T07:40:02;4.20;;;3.90;;
10339;SDS011;5215;48.676;9.022;2022-07-29T07:42:30;5.90;;;3.97;;
10339;SDS011;5215;48.676;9.022;2022-07-29T07:44:57;4.53;;;4.13;;
10339;SDS011;5215;48.676;9.022;2022-07-29T07:47:23;4.88;;;3.60;;
10339;SDS011;5215;48.676;9.022;2022-07-29T07:49:50;5.85;;;4.00;;
10339;SDS011;5215;48.676;9.022;2022-07-29T07:52:17;7.45;;;3.92;;
10339;SDS011;5215;48.676;9.022;2022-07-29T07:54:47;7.38;;;3.95;;
10339;SDS011;5215;48.676;9.022;2022-07-29T07:57:14;4.30;;;3.67;;
10339;SDS011;5215;48.676;9.022;2022-07-29T07:59:43;6.72;;;4.22;;
10339;SDS011;5215;48.676;9.022;2022-07-29T08:02:10;4.93;;;4.32;;
10339;SDS011;5215;48.676;9.022;2022-07-29T08:04:37;4.18;;;3.83;;
10339;SDS011;5215;48.676;9.022;2022-07-29T08:07:06;5.38;;;4.22;;
10339;SDS011;5215;48.676;9.022;2022-07-29T08:09:34;5.85;;;3.90;;
10339;SDS011;5215;48.676;9.022;2022-07-29T08:12:04;3.95;;;3.65;;
10339;SDS011;5215;48.676;9.022;2022-07-29T08:14:31;4.70;;;4.18;;
10339;SDS011;5215;48.676;9.022;2022-07-29T08:16:58;4.57;;;4.20;;
10339;SDS011;5215;48.676;9.022;2022-07-29T08:19:25;4.25;;;3.85;;
10339;SDS011;5215;48.676;9.022;2022-07-29T08:21:51;4.60;;;4.20;;
10339;SDS011;5215;48.676;9.022;2022-07-29T08:24:18;4.03;;;3.72;;
10339;SDS011;5215;48.676;9.022;2022-07-29T08:27:03;4.45;;;4.05;;
10339;SDS011;5215;48.676;9.022;2022-07-29T08:29:30;6.28;;;4.20;;
10339;SDS011;5215;48.676;9.022;2022-07-29T08:31:56;4.15;;;3.75;;
10339;SDS011;5215;48.676;9.022;2022-07-29T08:34:23;3.95;;;3.58;;
10339;SDS011;5215;48.676;9.022;2022-07-29T08:36:50;4.03;;;3.55;;
10339;SDS011;5215;48.676;9.022;2022-07-29T08:39:16;5.13;;;3.67;;
10339;SDS011;5215;48.676;9.022;2022-07-29T08:41:43;5.53;;;4.22;;
10339;SDS011;5215;48.676;9.022;2022-07-29T08:44:11;4.03;;;3.63;;
10339;SDS011;5215;48.676;9.022;2022-07-29T08:46:38;4.20;;;3.83;;
10339;SDS011;5215;48.676;9.022;2022-07-29T08:49:04;4.13;;;3.83;;
10339;SDS011;5215;48.676;9.022;2022-07-29T08:51:31;4.03;;;3.72;;
10339;SDS011;5215;48.676;9.022;2022-07-29T08:54:00;4.50;;;4.10;;
10339;SDS011;5215;48.676;9.022;2022-07-29T08:56:27;5.35;;;4.45;;
10339;SDS011;5215;48.676;9.022;2022-07-29T08:58:55;8.27;;;4.68;;
10339;SDS011;5215;48.676;9.022;2022-07-29T09:01:27;5.03;;;4.22;;
10339;SDS011;5215;48.676;9.022;2022-07-29T09:03:55;4.13;;;3.63;;
10339;SDS011;5215;48.676;9.022;2022-07-29T09:06:22;7.38;;;3.85;;
10339;SDS011;5215;48.676;9.022;2022-07-29T09:08:52;5.60;;;3.95;;
10339;SDS011;5215;48.676;9.022;2022-07-29T09:11:20;4.20;;;3.90;;
10339;SDS011;5215;48.676;9.022;2022-07-29T09:13:47;4.80;;;4.10;;
10339;SDS011;5215;48.676;9.022;2022-07-29T09:16:14;4.63;;;4.28;;
10339;SDS011;5215;48.676;9.022;2022-07-29T09:18:43;5.13;;;3.70;;
10339;SDS011;5215;48.676;9.022;2022-07-29T09:21:11;6.72;;;4.70;;
10339;SDS011;5215;48.676;9.022;2022-07-29T09:24:07;6.55;;;3.97;;
10339;SDS011;5215;48.676;9.022;2022-07-29T09:26:36;4.50;;;3.80;;
10339;SDS011;5215;48.676;9.022;2022-07-29T09:29:09;6.00;;;4.10;;
10339;SDS011;5215;48.676;9.022;2022-07-29T09:31:37;4.45;;;3.90;;
10339;SDS011;5215;48.676;9.022;2022-07-29T09:34:07;4.55;;;3.70;;
10339;SDS011;5215;48.676;9.022;2022-07-29T09:36:38;7.10;;;4.38;;
10339;SDS011;5215;48.676;9.022;2022-07-29T09:39:05;7.55;;;3.90;;
10339;SDS011;5215;48.676;9.022;2022-07-29T09:41:43;5.03;;;3.95;;
10339;SDS011;5215;48.676;9.022;2022-07-29T09:44:14;4.40;;;4.00;;
10339;SDS011;5215;48.676;9.022;2022-07-29T09:46:52;5.47;;;3.90;;
10339;SDS011;5215;48.676;9.022;2022-07-29T09:49:21;4.20;;;3.80;;
10339;SDS011;5215;48.676;9.022;2022-07-29T09:51:47;4.78;;;3.80;;
10339;SDS011;5215;48.676;9.022;2022-07-29T09:54:25;5.90;;;4.18;;
10339;SDS011;5215;48.676;9.022;2022-07-29T09:56:53;4.85;;;4.15;;
10339;SDS011;5215;48.676;9.022;2022-07-29T09:59:20;5.55;;;4.18;;
10339;SDS011;5215;48.676;9.022;2022-07-29T10:01:51;4.38;;;3.97;;
10339;SDS011;5215;48.676;9.022;2022-07-29T10:04:18;4.80;;;4.40;;
10339;SDS011;5215;48.676;9.022;2022-07-29T10:06:56;7.10;;;4.13;;
10339;SDS011;5215;48.676;9.022;2022-07-29T10:09:23;6.13;;;4.07;;
10339;SDS011;5215;48.676;9.022;2022-07-29T10:14:40;4.50;;;4.10;;
10339;SDS011;5215;48.676;9.022;2022-07-29T10:17:07;6.78;;;4.72;;
10339;SDS011;5215;48.676;9.022;2022-07-29T10:19:37;4.40;;;4.00;;
10339;SDS011;5215;48.676;9.022;2022-07-29T10:22:05;4.50;;;4.10;;
10339;SDS011;5215;48.676;9.022;2022-07-29T10:24:33;4.82;;;3.90;;
10339;SDS011;5215;48.676;9.022;2022-07-29T10:27:01;4.57;;;4.13;;
10339;SDS011;5215;48.676;9.022;2022-07-29T10:29:29;7.25;;;4.18;;
10339;SDS011;5215;48.676;9.022;2022-07-29T10:32:05;5.70;;;3.33;;
10339;SDS011;5215;48.676;9.022;2022-07-29T10:34:48;6.10;;;3.63;;
10339;SDS011;5215;48.676;9.022;2022-07-29T10:37:28;4.93;;;3.50;;
10339;SDS011;5215;48.676;9.022;2022-07-29T10:40:06;4.95;;;3.60;;
10339;SDS011;5215;48.676;9.022;2022-07-29T10:42:58;3.90;;;3.60;;
10339;SDS011;5215;48.676;9.022;2022-07-29T10:45:34;9.25;;;4.72;;
10339;SDS011;5215;48.676;9.022;2022-07-29T10:48:03;6.93;;;5.50;;
10339;SDS011;5215;48.676;9.022;2022-07-29T10:53:45;6.40;;;4.47;;
10339;SDS011;5215;48.676;9.022;2022-07-29T10:56:25;9.40;;;4.57;;
10339;SDS011;5215;48.676;9.022;2022-07-29T11:01:57;7.55;;;4.88;;
10339;SDS011;5215;48.676;9.022;2022-07-29T11:07:40;5.53;;;3.47;;
10339;SDS011;5215;48.676;9.022;2022-07-29T11:10:51;9.02;;;4.20;;
10339;SDS011;5215;48.676;9.022;2022-07-29T11:13:48;8.32;;;4.78;;
10339;SDS011;5215;48.676;9.022;2022-07-29T11:16:31;4.97;;;4.00;;
10339;SDS011;5215;48.676;9.022;2022-07-29T11:19:34;7.50;;;4.38;;
10339;SDS011;5215;48.676;9.022;2022-07-29T11:22:12;9.85;;;4.13;;
10339;SDS011;5215;48.676;9.022;2022-07-29T11:25:17;5.40;;;4.10;;
10339;SDS011;5215;48.676;9.022;2022-07-29T11:27:53;4.65;;;3.55;;
10339;SDS011;5215;48.676;9.022;2022-07-29T11:30:47;7.60;;;4.70;;
10339;SDS011;5215;48.676;9.022;2022-07-29T11:33:28;4.32;;;3.92;;
10339;SDS011;5215;48.676;9.022;2022-07-29T11:36:07;7.93;;;5.00;;
10339;SDS011;5215;48.676;9.022;2022-07-29T11:38:36;7.20;;;4.03;;
10339;SDS011;5215;48.676;9.022;2022-07-29T11:41:20;7.10;;;3.92;;
10339;SDS011;5215;48.676;9.022;2022-07-29T11:43:51;4.68;;;4.15;;
10339;SDS011;5215;48.676;9.022;2022-07-29T11:49:18;7.72;;;4.32;;
10339;SDS011;5215;48.676;9.022;2022-07-29T11:51:49;4.90;;;4.40;;
10339;SDS011;5215;48.676;9.022;2022-07-29T11:54:18;5.05;;;4.13;;
10339;SDS011;5215;48.676;9.022;2022-07-29T11:56:52;4.32;;;3.88;;
10339;SDS011;5215;48.676;9.022;2022-07-29T11:59:19;3.95;;;3.65;;
10339;SDS011;5215;48.676;9.022;2022-07-29T12:01:56;4.55;;;3.85;;
10339;SDS011;5215;48.676;9.022;2022-07-29T12:04:24;4.10;;;3.60;;
10339;SDS011;5215;48.676;9.022;2022-07-29T12:06:51;4.38;;;3.35;;
10339;SDS011;5215;48.676;9.022;2022-07-29T12:09:19;4.55;;;4.00;;
10339;SDS011;5215;48.676;9.022;2022-07-29T12:11:47;4.50;;;3.72;;
10339;SDS011;5215;48.676;9.022;2022-07-29T12:14:28;4.78;;;3.28;;
10339;SDS011;5215;48.676;9.022;2022-07-29T12:16:56;4.00;;;3.60;;
10339;SDS011;5215;48.676;9.022;2022-07-29T12:19:23;5.82;;;4.30;;
10339;SDS011;5215;48.676;9.022;2022-07-29T12:21:50;5.05;;;4.30;;
10339;SDS011;5215;48.676;9.022;2022-07-29T12:24:18;6.40;;;4.32;;
10339;SDS011;5215;48.676;9.022;2022-07-29T12:26:49;4.30;;;3.90;;
10339;SDS011;5215;48.676;9.022;2022-07-29T12:29:16;5.25;;;4.28;;
10339;SDS011;5215;48.676;9.022;2022-07-29T12:31:45;5.40;;;3.95;;
10339;SDS011;5215;48.676;9.022;2022-07-29T12:34:12;5.18;;;4.03;;
10339;SDS011;5215;48.676;9.022;2022-07-29T12:36:41;4.38;;;3.97;;
10339;SDS011;5215;48.676;9.022;2022-07-29T12:39:09;4.63;;;3.67;;
10339;SDS011;5215;48.676;9.022;2022-07-29T12:41:37;4.88;;;3.63;;
10339;SDS011;5215;48.676;9.022;2022-07-29T12:44:04;3.92;;;3.47;;
10339;SDS011;5215;48.676;9.022;2022-07-29T12:46:31;4.70;;;3.88;;
10339;SDS011;5215;48.676;9.022;2022-07-29T12:48:59;5.78;;;4.05;;
10339;SDS011;5215;48.676;9.022;2022-07-29T12:51:29;4.85;;;4.30;;
10339;SDS011;5215;48.676;9.022;2022-07-29T12:54:02;7.93;;;4.60;;
10339;SDS011;5215;48.676;9.022;2022-07-29T12:56:31;6.05;;;4.65;;
10339;SDS011;5215;48.676;9.022;2022-07-29T12:58:59;4.38;;;3.63;;
10339;SDS011;5215;48.676;9.022;2022-07-29T13:01:25;5.07;;;4.18;;
10339;SDS011;5215;48.676;9.022;2022-07-29T13:03:53;5.20;;;4.70;;
10339;SDS011;5215;48.676;9.022;2022-07-29T13:06:30;5.40;;;4.43;;
10339;SDS011;5215;48.676;9.022;2022-07-29T13:09:02;5.90;;;4.22;;
10339;SDS011;5215;48.676;9.022;2022-07-29T13:11:30;5.25;;;4.75;;
10339;SDS011;5215;48.676;9.022;2022-07-29T13:13:57;6.90;;;4.43;;
10339;SDS011;5215;48.676;9.022;2022-07-29T13:16:24;8.63;;;4.68;;
10339;SDS011;5215;48.676;9.022;2022-07-29T13:19:02;6.32;;;4.55;;
10339;SDS011;5215;48.676;9.022;2022-07-29T13:21:37;10.25;;;5.40;;
10339;SDS011;5215;48.676;9.022;2022-07-29T13:24:05;6.05;;;5.47;;
10339;SDS011;5215;48.676;9.022;2022-07-29T13:26:33;5.35;;;4.85;;
10339;SDS011;5215;48.676;9.022;2022-07-29T13:29:00;6.85;;;5.93;;
10339;SDS011;5215;48.676;9.022;2022-07-29T13:31:27;8.73;;;6.28;;
10339;SDS011;5215;48.676;9.022;2022-07-29T13:33:53;8.95;;;6.40;;
10339;SDS011;5215;48.676;9.022;2022-07-29T13:36:21;9.10;;;6.50;;
10339;SDS011;5215;48.676;9.022;2022-07-29T13:38:49;6.38;;;5.75;;
10339;SDS011;5215;48.676;9.022;2022-07-29T13:41:16;7.57;;;6.63;;
10339;SDS011;5215;48.676;9.022;2022-07-29T13:43:42;8.70;;;6.88;;
10339;SDS011;5215;48.676;9.022;2022-07-29T13:46:09;7.50;;;6.70;;
10339;SDS011;5215;48.676;9.022;2022-07-29T13:48:36;10.52;;;6.75;;
10339;SDS011;5215;48.676;9.022;2022-07-29T13:51:03;8.70;;;7.28;;
10339;SDS011;5215;48.676;9.022;2022-07-29T13:53:29;9.25;;;6.88;;
10339;SDS011;5215;48.676;9.022;2022-07-29T13:55:57;7.63;;;6.82;;
10339;SDS011;5215;48.676;9.022;2022-07-29T13:58:24;7.40;;;6.05;;
10339;SDS011;5215;48.676;9.022;2022-07-29T14:00:50;6.50;;;5.82;;
10339;SDS011;5215;48.676;9.022;2022-07-29T14:03:17;6.13;;;5.53;;
10339;SDS011;5215;48.676;9.022;2022-07-29T14:05:44;6.22;;;5.47;;
10339;SDS011;5215;48.676;9.022;2022-07-29T14:08:10;6.38;;;5.75;;
10339;SDS011;5215;48.676;9.022;2022-07-29T14:10:37;6.03;;;5.43;;
10339;SDS011;5215;48.676;9.022;2022-07-29T14:13:05;6.65;;;5.50;;
10339;SDS011;5215;48.676;9.022;2022-07-29T14:15:31;5.88;;;5.28;;
10339;SDS011;5215;48.676;9.022;2022-07-29T14:17:58;7.07;;;5.47;;
10339;SDS011;5215;48.676;9.022;2022-07-29T14:20:25;6.30;;;5.70;;
10339;SDS011;5215;48.676;9.022;2022-07-29T14:22:53;7.05;;;5.75;;
10339;SDS011;5215;48.676;9.022;2022-07-29T14:25:20;7.30;;;6.60;;
10339;SDS011;5215;48.676;9.022;2022-07-29T14:27:46;8.60;;;6.20;;
10339;SDS011;5215;48.676;9.022;2022-07-29T14:30:14;6.90;;;6.00;;
10339;SDS011;5215;48.676;9.022;2022-07-29T14:32:41;8.02;;;5.70;;
10339;SDS011;5215;48.676;9.022;2022-07-29T14:35:07;6.35;;;5.75;;
10339;SDS011;5215;48.676;9.022;2022-07-29T14:37:34;6.70;;;5.68;;
10339;SDS011;5215;48.676;9.022;2022-07-29T14:40:01;6.75;;;5.97;;
10339;SDS011;5215;48.676;9.022;2022-07-29T14:42:29;6.00;;;5.40;;
10339;SDS011;5215;48.676;9.022;2022-07-29T14:44:56;6.35;;;5.75;;
10339;SDS011;5215;48.676;9.022;2022-07-29T14:47:24;7.30;;;6.45;;
10339;SDS011;5215;48.676;9.022;2022-07-29T14:49:51;8.65;;;5.70;;
10339;SDS011;5215;48.676;9.022;2022-07-29T14:52:18;9.70;;;5.65;;
10339;SDS011;5215;48.676;9.022;2022-07-29T14:54:45;5.57;;;4.90;;
10339;SDS011;5215;48.676;9.022;2022-07-29T14:57:11;6.68;;;5.43;;
10339;SDS011;5215;48.676;9.022;2022-07-29T14:59:38;6.05;;;5.30;;
10339;SDS011;5215;48.676;9.022;2022-07-29T15:02:04;7.70;;;5.35;;
10339;SDS011;5215;48.676;9.022;2022-07-29T15:04:32;5.53;;;4.47;;
10339;SDS011;5215;48.676;9.022;2022-07-29T15:06:59;6.75;;;4.80;;
10339;SDS011;5215;48.676;9.022;2022-07-29T15:09:26;6.25;;;5.10;;
10339;SDS011;5215;48.676;9.022;2022-07-29T15:11:52;6.03;;;5.18;;
10339;SDS011;5215;48.676;9.022;2022-07-29T15:14:19;5.43;;;4.90;;
10339;SDS011;5215;48.676;9.022;2022-07-29T15:16:45;7.88;;;5.43;;
10339;SDS011;5215;48.676;9.022;2022-07-29T15:19:12;6.18;;;5.57;;
10339;SDS011;5215;48.676;9.022;2022-07-29T15:21:40;6.18;;;5.68;;
10339;SDS011;5215;48.676;9.022;2022-07-29T15:24:07;5.63;;;5.13;;
10339;SDS011;5215;48.676;9.022;2022-07-29T15:26:33;9.68;;;5.60;;
10339;SDS011;5215;48.676;9.022;2022-07-29T15:29:00;5.82;;;5.28;;
10339;SDS011;5215;48.676;9.022;2022-07-29T15:31:27;6.13;;;5.53;;